Time,TemperatureF,DewpointF,PressureIn,WindDirection,WindDirectionDegrees,WindSpeedMPH,WindSpeedGustMPH,Humidity,HourlyPrecipIn,Conditions,Clouds,dailyrainin,SoftwareType,DateUTC
2013-02-18 00:03:00,13.8,-0.1,29.46,North,0,5.8,-999.0,53,-99.99,,,0.00,Acu-Link.com,2013-02-18 05:03:00,
2013-02-18 00:18:00,13.6,-0.3,29.46,NW,315,4.7,-999.0,53,-99.99,,,0.00,Acu-Link.com,2013-02-18 05:18:00,
2013-02-18 00:33:00,13.6,0.1,29.46,North,0,6.7,-999.0,54,-99.99,,,0.00,Acu-Link.com,2013-02-18 05:33:00,
2013-02-18 00:48:00,13.6,0.1,29.47,WNW,292,5.8,-999.0,54,-99.99,,,0.00,Acu-Link.com,2013-02-18 05:48:00,
2013-02-18 01:03:00,13.3,-0.2,29.47,WNW,292,6.3,-999.0,54,-99.99,,,0.00,Acu-Link.com,2013-02-18 06:03:00,
2013-02-18 01:19:00,13.3,-0.2,29.47,WNW,292,7.4,-999.0,54,-99.99,,,0.00,Acu-Link.com,2013-02-18 06:19:00,
2013-02-18 01:34:00,13.1,0.0,29.48,NW,315,5.8,-999.0,55,-99.99,,,0.00,Acu-Link.com,2013-02-18 06:34:00,
2013-02-18 01:49:00,13.1,0.0,29.49,WNW,292,5.1,-999.0,55,-99.99,,,0.00,Acu-Link.com,2013-02-18 06:49:00,
2013-02-18 02:04:00,12.9,-0.2,29.49,NNW,337,6.3,-999.0,55,-99.99,,,0.00,Acu-Link.com,2013-02-18 07:04:00,
2013-02-18 02:19:00,12.7,-0.3,29.50,WNW,292,6.3,-999.0,55,-99.99,,,0.00,Acu-Link.com,2013-02-18 07:19:00,
2013-02-18 02:35:00,12.7,-0.3,29.50,NW,315,5.8,-999.0,55,-99.99,,,0.00,Acu-Link.com,2013-02-18 07:35:00,
2013-02-18 02:50:00,12.4,-0.3,29.52,NNE,22,4.3,-999.0,56,-99.99,,,0.00,Acu-Link.com,2013-02-18 07:50:00,
2013-02-18 03:05:00,12.4,-0.3,29.53,North,0,5.1,-999.0,56,-99.99,,,0.00,Acu-Link.com,2013-02-18 08:05:00,
2013-02-18 03:20:00,12.4,-0.3,29.52,NNW,337,7.8,-999.0,56,-99.99,,,0.00,Acu-Link.com,2013-02-18 08:20:00,
2013-02-18 03:36:00,12.2,-0.1,29.53,NW,315,7.8,-999.0,57,-99.99,,,0.00,Acu-Link.com,2013-02-18 08:36:00,
2013-02-18 03:51:00,12.2,-0.5,29.54,WNW,292,6.7,-999.0,56,-99.99,,,0.00,Acu-Link.com,2013-02-18 08:51:00,
2013-02-18 04:18:00,12.0,-0.6,29.55,ENE,67,2.2,-999.0,56,-99.99,,,0.00,Acu-Link.com,2013-02-18 09:18:00,
2013-02-18 04:33:00,11.8,-0.4,29.56,NW,315,5.1,-999.0,57,-99.99,,,0.00,Acu-Link.com,2013-02-18 09:33:00,
2013-02-18 04:48:00,11.5,-0.8,29.56,West,270,6.3,-999.0,57,-99.99,,,0.00,Acu-Link.com,2013-02-18 09:48:00,
2013-02-18 05:04:00,11.7,-0.6,29.57,NE,45,3.8,-999.0,57,-99.99,,,0.00,Acu-Link.com,2013-02-18 10:04:00,
2013-02-18 05:19:00,11.5,-0.8,29.60,West,270,5.8,-999.0,57,-99.99,,,0.00,Acu-Link.com,2013-02-18 10:19:00,
2013-02-18 05:34:00,11.5,-0.8,29.60,NNE,22,7.4,-999.0,57,-99.99,,,0.00,Acu-Link.com,2013-02-18 10:34:00,
2013-02-18 05:49:00,11.3,-0.9,29.62,NW,315,6.7,-999.0,57,-99.99,,,0.00,Acu-Link.com,2013-02-18 10:49:00,
2013-02-18 06:04:00,11.3,-0.6,29.63,WNW,292,12.5,-999.0,58,-99.99,,,0.00,Acu-Link.com,2013-02-18 11:04:00,
2013-02-18 06:20:00,10.9,-0.9,29.64,West,270,6.7,-999.0,58,-99.99,,,0.00,Acu-Link.com,2013-02-18 11:20:00,
2013-02-18 06:35:00,10.8,-0.7,29.65,WNW,292,4.3,-999.0,59,-99.99,,,0.00,Acu-Link.com,2013-02-18 11:35:00,
2013-02-18 06:50:00,10.8,-1.1,29.66,NW,315,2.7,-999.0,58,-99.99,,,0.00,Acu-Link.com,2013-02-18 11:50:00,
2013-02-18 07:05:00,11.7,-0.6,29.67,West,270,3.8,-999.0,57,-99.99,,,0.00,Acu-Link.com,2013-02-18 12:05:00,
2013-02-18 07:20:00,13.3,-0.2,29.68,West,270,2.7,-999.0,54,-99.99,,,0.00,Acu-Link.com,2013-02-18 12:20:00,
2013-02-18 07:36:00,14.4,0.0,29.70,NE,45,2.7,-999.0,52,-99.99,,,0.00,Acu-Link.com,2013-02-18 12:36:00,
2013-02-18 07:51:00,14.7,-0.1,29.71,NW,315,7.8,-999.0,51,-99.99,,,0.00,Acu-Link.com,2013-02-18 12:51:00,
2013-02-18 08:06:00,14.4,0.4,29.72,NNE,22,2.7,-999.0,53,-99.99,,,0.00,Acu-Link.com,2013-02-18 13:06:00,
2013-02-18 08:21:00,14.7,0.3,29.72,West,270,11.4,-999.0,52,-99.99,,,0.00,Acu-Link.com,2013-02-18 13:21:00,
2013-02-18 08:36:00,16.0,0.7,29.73,West,270,8.9,-999.0,50,-99.99,,,0.00,Acu-Link.com,2013-02-18 13:36:00,
2013-02-18 08:52:00,16.9,0.6,29.74,West,270,5.1,-999.0,48,-99.99,,,0.00,Acu-Link.com,2013-02-18 13:52:00,
2013-02-18 09:07:00,18.0,1.2,29.74,North,0,5.8,-999.0,47,-99.99,,,0.00,Acu-Link.com,2013-02-18 14:07:00,
2013-02-18 09:22:00,19.2,0.9,29.75,NW,315,4.3,-999.0,44,-99.99,,,0.00,Acu-Link.com,2013-02-18 14:22:00,
2013-02-18 09:37:00,20.3,1.4,29.74,East,90,6.7,-999.0,43,-99.99,,,0.00,Acu-Link.com,2013-02-18 14:37:00,
2013-02-18 09:52:00,21.6,0.5,29.74,WNW,292,4.7,-999.0,39,-99.99,,,0.00,Acu-Link.com,2013-02-18 14:52:00,
2013-02-18 10:08:00,22.6,0.9,29.75,WNW,292,4.7,-999.0,38,-99.99,,,0.00,Acu-Link.com,2013-02-18 15:08:00,
2013-02-18 10:23:00,23.0,0.7,29.75,NNE,22,6.3,-999.0,37,-99.99,,,0.00,Acu-Link.com,2013-02-18 15:23:00,
2013-02-18 10:38:00,23.5,0.0,29.75,WNW,292,8.9,-999.0,35,-99.99,,,0.00,Acu-Link.com,2013-02-18 15:38:00,
2013-02-18 10:53:00,25.7,1.3,29.76,East,90,1.6,-999.0,34,-99.99,,,0.00,Acu-Link.com,2013-02-18 15:53:00,
2013-02-18 11:08:00,25.3,0.3,29.76,WNW,292,6.7,-999.0,33,-99.99,,,0.00,Acu-Link.com,2013-02-18 16:08:00,
2013-02-18 11:24:00,26.2,-0.9,29.76,NNE,22,5.1,-999.0,30,-99.99,,,0.00,Acu-Link.com,2013-02-18 16:24:00,
2013-02-18 11:39:00,26.1,0.3,29.76,NNW,337,10.3,-999.0,32,-99.99,,,0.00,Acu-Link.com,2013-02-18 16:39:00,
2013-02-18 11:54:00,26.4,-0.1,29.77,NW,315,3.8,-999.0,31,-99.99,,,0.00,Acu-Link.com,2013-02-18 16:54:00,
2013-02-18 12:10:00,26.2,-1.6,29.77,NW,315,5.8,-999.0,29,-99.99,,,0.00,Acu-Link.com,2013-02-18 17:10:00,
2013-02-18 12:26:00,26.6,-0.6,29.76,West,270,4.7,-999.0,30,-99.99,,,0.00,Acu-Link.com,2013-02-18 17:26:00,
2013-02-18 12:41:00,27.9,-0.2,29.76,South,180,11.0,-999.0,29,-99.99,,,0.00,Acu-Link.com,2013-02-18 17:41:00,
2013-02-18 12:56:00,27.3,-0.7,29.77,NNW,337,3.8,-999.0,29,-99.99,,,0.02,Acu-Link.com,2013-02-18 17:56:00,
2013-02-18 13:11:00,27.3,-0.7,29.77,NW,315,9.8,-999.0,29,-99.99,,,0.02,Acu-Link.com,2013-02-18 18:11:00,
2013-02-18 13:26:00,28.6,0.4,29.77,NNE,22,4.3,-999.0,29,-99.99,,,0.02,Acu-Link.com,2013-02-18 18:26:00,
2013-02-18 13:42:00,27.7,-0.4,29.78,WNW,292,4.3,-999.0,29,-99.99,,,0.02,Acu-Link.com,2013-02-18 18:42:00,
2013-02-18 13:57:00,28.4,-0.5,29.78,NW,315,3.1,-999.0,28,-99.99,,,0.02,Acu-Link.com,2013-02-18 18:57:00,
2013-02-18 14:12:00,28.4,-0.5,29.78,NW,315,6.7,-999.0,28,-99.99,,,0.02,Acu-Link.com,2013-02-18 19:12:00,
2013-02-18 14:27:00,28.8,-1.0,29.78,WNW,292,7.4,-999.0,27,-99.99,,,0.02,Acu-Link.com,2013-02-18 19:27:00,
2013-02-18 14:42:00,28.9,0.0,29.78,West,270,6.3,-999.0,28,-99.99,,,0.02,Acu-Link.com,2013-02-18 19:42:00,
2013-02-18 14:58:00,28.9,-0.8,29.78,NW,315,1.6,-999.0,27,-99.99,,,0.02,Acu-Link.com,2013-02-18 19:58:00,
2013-02-18 15:13:00,29.8,0.0,29.79,NNW,337,3.8,-999.0,27,-99.99,,,0.02,Acu-Link.com,2013-02-18 20:13:00,
2013-02-18 15:28:00,30.4,-1.2,29.79,SSE,157,4.3,-999.0,25,-99.99,,,0.02,Acu-Link.com,2013-02-18 20:28:00,
2013-02-18 15:43:00,30.2,-0.5,29.79,NW,315,8.3,-999.0,26,-99.99,,,0.02,Acu-Link.com,2013-02-18 20:43:00,
2013-02-18 15:59:00,28.9,0.0,29.80,East,90,4.3,-999.0,28,-99.99,,,0.02,Acu-Link.com,2013-02-18 20:59:00,
2013-02-18 16:14:00,28.8,0.6,29.82,North,0,2.7,-999.0,29,-99.99,,,0.02,Acu-Link.com,2013-02-18 21:14:00,
2013-02-18 16:29:00,28.9,-0.8,29.82,West,270,2.2,-999.0,27,-99.99,,,0.02,Acu-Link.com,2013-02-18 21:29:00,
2013-02-18 16:44:00,27.5,-1.3,29.82,WNW,292,3.8,-999.0,28,-99.99,,,0.02,Acu-Link.com,2013-02-18 21:44:00,
2013-02-18 16:59:00,26.8,-1.2,29.82,WSW,247,2.7,-999.0,29,-99.99,,,0.02,Acu-Link.com,2013-02-18 21:59:00,
2013-02-18 17:30:00,25.3,-0.3,29.83,NNW,337,2.7,-999.0,32,-99.99,,,0.02,Acu-Link.com,2013-02-18 22:30:00,
2013-02-18 17:45:00,24.8,-0.2,29.84,NE,45,2.2,-999.0,33,-99.99,,,0.02,Acu-Link.com,2013-02-18 22:45:00,
2013-02-18 18:00:00,24.6,-0.3,29.85,NE,45,3.1,-999.0,33,-99.99,,,0.02,Acu-Link.com,2013-02-18 23:00:00,
2013-02-18 18:15:00,24.4,0.1,29.85,West,270,2.7,-999.0,34,-99.99,,,0.02,Acu-Link.com,2013-02-18 23:15:00,
2013-02-18 18:31:00,24.3,0.6,29.85,NW,315,3.1,-999.0,35,-99.99,,,0.02,Acu-Link.com,2013-02-18 23:31:00,
2013-02-18 18:46:00,24.1,0.4,29.86,West,270,2.2,-999.0,35,-99.99,,,0.02,Acu-Link.com,2013-02-18 23:46:00,
2013-02-18 19:01:00,23.4,1.0,29.87,WSW,247,1.1,-999.0,37,-99.99,,,0.02,Acu-Link.com,2013-02-19 00:01:00,
2013-02-18 19:16:00,22.8,1.1,29.87,NNW,337,0.0,-999.0,38,-99.99,,,0.02,Acu-Link.com,2013-02-19 00:16:00,
2013-02-18 19:31:00,22.5,0.7,29.87,West,270,2.2,-999.0,38,-99.99,,,0.02,Acu-Link.com,2013-02-19 00:31:00,
2013-02-18 19:47:00,22.1,0.4,29.88,South,180,3.8,-999.0,38,-99.99,,,0.02,Acu-Link.com,2013-02-19 00:47:00,
2013-02-18 20:02:00,21.9,0.3,29.88,NW,315,4.3,-999.0,38,-99.99,,,0.02,Acu-Link.com,2013-02-19 01:02:00,
2013-02-18 20:17:00,22.1,1.0,29.88,WNW,292,1.6,-999.0,39,-99.99,,,0.02,Acu-Link.com,2013-02-19 01:17:00,
2013-02-18 20:32:00,21.9,0.8,29.88,NW,315,2.2,-999.0,39,-99.99,,,0.02,Acu-Link.com,2013-02-19 01:32:00,
2013-02-18 20:48:00,21.9,0.8,29.89,West,270,2.7,-999.0,39,-99.99,,,0.02,Acu-Link.com,2013-02-19 01:48:00,
2013-02-18 21:03:00,21.7,1.2,29.89,NNE,22,2.7,-999.0,40,-99.99,,,0.02,Acu-Link.com,2013-02-19 02:03:00,
2013-02-18 21:18:00,21.6,1.0,29.89,SSW,202,5.1,-999.0,40,-99.99,,,0.02,Acu-Link.com,2013-02-19 02:18:00,
2013-02-18 21:33:00,21.2,1.2,29.89,ESE,112,3.1,-999.0,41,-99.99,,,0.02,Acu-Link.com,2013-02-19 02:33:00,
2013-02-18 21:48:00,21.0,1.1,29.89,WNW,292,3.8,-999.0,41,-99.99,,,0.02,Acu-Link.com,2013-02-19 02:48:00,
2013-02-18 22:03:00,20.7,1.7,29.90,NW,315,3.1,-999.0,43,-99.99,,,0.02,Acu-Link.com,2013-02-19 03:03:00,
2013-02-18 22:18:00,20.8,1.9,29.90,West,270,7.4,-999.0,43,-99.99,,,0.02,Acu-Link.com,2013-02-19 03:18:00,
2013-02-18 22:34:00,20.7,1.7,29.90,SW,225,1.6,-999.0,43,-99.99,,,0.02,Acu-Link.com,2013-02-19 03:34:00,
2013-02-18 22:49:00,20.3,2.4,29.91,South,180,2.2,-999.0,45,-99.99,,,0.02,Acu-Link.com,2013-02-19 03:49:00,
2013-02-18 23:04:00,20.3,2.4,29.91,South,180,1.6,-999.0,45,-99.99,,,0.02,Acu-Link.com,2013-02-19 04:04:00,
2013-02-18 23:19:00,20.5,1.6,29.91,NNE,22,2.7,-999.0,43,-99.99,,,0.02,Acu-Link.com,2013-02-19 04:19:00,
2013-02-18 23:35:00,20.3,1.9,29.91,West,270,2.7,-999.0,44,-99.99,,,0.02,Acu-Link.com,2013-02-19 04:35:00,
2013-02-18 23:50:00,20.5,1.6,29.91,East,90,0.0,-999.0,43,-99.99,,,0.02,Acu-Link.com,2013-02-19 04:50:00,